Ieper, Belgium
Current Conditions -  °F | °C
As of 1:30 AM on Thursday 18 Dec 2014 (Local Time) from LFQQ Reporting Station
Drizzle Drizzle  
Wind Chill: 52°   Ceiling: 500
Heat Index: 52°   Visibility: 5mi
Dew Point: 52°   Wind: 9mph
Humidity: 100%   Direction: 210°SSW
Pressure: 29.83"   Gusts: NA
Location:  50.85°N, 2.89°E
Report Text: LFQQ 180030Z AUTO 21008KT 8000 -DZ BKN005 OVC010 11/11 Q1010
Loading
Personal Weather Stations






























Interactive Weather Map New forecast layout! Learn more

10-Day Weather Forecast

Advertisements
Track Severe Weather on mobile